createdAt,value
2019-02-14T00:00:53.502Z,102596.59
2019-02-14T00:03:27.027Z,102597.05
2019-02-14T00:06:00.585Z,102599.28
2019-02-14T00:08:34.188Z,102600.94
2019-02-14T00:11:07.806Z,102599.23
2019-02-14T00:13:41.253Z,102603.95
2019-02-14T00:16:14.711Z,102601.36
2019-02-14T00:18:48.059Z,102602.59
2019-02-14T00:21:21.578Z,102595.31
2019-02-14T00:23:54.947Z,102587.78
2019-02-14T00:26:28.427Z,102589.05
2019-02-14T00:29:01.863Z,102589.06
2019-02-14T00:31:35.257Z,102593.73
2019-02-14T00:34:08.824Z,102590.29
2019-02-14T00:36:42.312Z,102579.26
2019-02-14T00:39:15.732Z,102572.06
2019-02-14T00:41:49.111Z,102582.66
2019-02-14T00:44:22.460Z,102592.84
2019-02-14T00:46:55.980Z,102598.38
2019-02-14T00:49:29.500Z,102600.13
2019-02-14T00:52:03.070Z,102596.68
2019-02-14T00:54:36.423Z,102592.08
2019-02-14T00:57:09.872Z,102581.94
2019-02-14T00:59:43.358Z,102579.73
2019-02-14T01:02:16.935Z,102583.18
2019-02-14T01:04:50.357Z,102584.84
2019-02-14T01:07:23.817Z,102588.63
2019-02-14T01:09:57.241Z,102581.44
2019-02-14T01:12:30.700Z,102574.23
2019-02-14T01:15:06.838Z,102560.65
2019-02-14T01:17:40.210Z,102557.23
2019-02-14T01:20:13.566Z,102564.31
2019-02-14T01:22:47.098Z,102576.63
2019-02-14T01:25:20.544Z,102588.11
2019-02-14T01:27:53.967Z,102580.06
2019-02-14T01:30:27.421Z,102589.40
2019-02-14T01:33:00.773Z,102589.44
2019-02-14T01:35:41.808Z,102611.58
2019-02-14T01:38:09.557Z,102581.73
2019-02-14T01:40:43.044Z,102573.68
2019-02-14T01:43:16.493Z,102571.55
2019-02-14T01:45:49.942Z,102579.61
2019-02-14T01:48:23.357Z,102572.79
2019-02-14T01:50:56.787Z,102569.77
2019-02-14T01:53:30.272Z,102565.13
2019-02-14T01:56:03.698Z,102568.45
2019-02-14T01:58:37.122Z,102573.59
2019-02-14T02:01:10.534Z,102565.51
2019-02-14T02:03:43.994Z,102560.39
2019-02-14T02:06:17.374Z,102555.30
2019-02-14T02:08:50.942Z,102556.95
2019-02-14T02:11:24.390Z,102558.99
2019-02-14T02:13:57.945Z,102558.09
2019-02-14T02:16:31.374Z,102566.17
2019-02-14T02:19:04.972Z,102565.66
2019-02-14T02:21:38.486Z,102564.77
2019-02-14T02:24:12.144Z,102566.44
2019-02-14T02:26:45.500Z,102563.83
2019-02-14T02:29:18.934Z,102558.21
2019-02-14T02:31:52.506Z,102553.01
2019-02-14T02:34:25.931Z,102553.80
2019-02-14T02:36:59.356Z,102557.16
2019-02-14T02:39:32.840Z,102549.35
2019-02-14T02:42:06.244Z,102548.88
2019-02-14T02:44:39.623Z,102545.47
2019-02-14T02:47:13.038Z,102539.41
2019-02-14T02:49:46.426Z,102535.37
2019-02-14T02:52:19.944Z,102548.94
2019-02-14T02:54:53.349Z,102546.86
2019-02-14T02:57:26.821Z,102540.80
2019-02-14T03:00:00.317Z,102550.09
2019-02-14T03:02:33.768Z,102545.67
2019-02-14T03:05:10.103Z,102560.17
2019-02-14T03:07:43.500Z,102561.81
2019-02-14T03:10:16.851Z,102549.39
2019-02-14T03:12:50.187Z,102545.02
2019-02-14T03:15:23.607Z,102547.09
2019-02-14T03:17:56.988Z,102555.99
2019-02-14T03:20:30.450Z,102550.91
2019-02-14T03:23:03.860Z,102545.69
2019-02-14T03:25:37.239Z,102549.94
2019-02-14T03:28:10.642Z,102552.47
2019-02-14T03:30:44.030Z,102555.87
2019-02-14T03:33:17.448Z,102568.98
2019-02-14T03:35:50.922Z,102576.86
2019-02-14T03:38:24.272Z,102579.78
2019-02-14T03:40:57.691Z,102583.17
2019-02-14T03:43:31.086Z,102576.39
2019-02-14T03:46:04.623Z,102564.55
2019-02-14T03:48:37.956Z,102585.58
2019-02-14T03:51:11.338Z,102589.76
2019-02-14T03:53:44.702Z,102585.09
2019-02-14T03:56:18.100Z,102586.74
2019-02-14T03:58:51.423Z,102590.97
2019-02-14T04:01:24.838Z,102594.73
2019-02-14T04:03:58.213Z,102598.42
2019-02-14T04:06:31.648Z,102605.22
2019-02-14T04:09:07.516Z,102596.30
2019-02-14T04:11:41.032Z,102592.42
2019-02-14T04:14:14.432Z,102600.41
2019-02-14T04:16:47.790Z,102615.62
2019-02-14T04:19:21.118Z,102622.13
2019-02-14T04:21:54.544Z,102616.53
2019-02-14T04:24:27.966Z,102618.20
2019-02-14T04:27:01.477Z,102616.35
2019-02-14T04:29:34.819Z,102612.27
2019-02-14T04:32:08.205Z,102603.16
2019-02-14T04:34:41.598Z,102603.76
2019-02-14T04:37:15.038Z,102594.24
2019-02-14T04:39:48.670Z,102589.30
2019-02-14T04:42:22.118Z,102584.70
2019-02-14T04:44:55.514Z,102606.15
2019-02-14T04:47:28.979Z,102601.40
2019-02-14T04:50:02.406Z,102605.58
2019-02-14T04:52:35.794Z,102612.16
2019-02-14T04:55:10.575Z,102623.16
2019-02-14T04:57:44.380Z,102613.41
2019-02-14T05:00:17.776Z,102608.43
2019-02-14T05:02:51.154Z,102606.47
2019-02-14T05:05:24.644Z,102605.20
2019-02-14T05:07:58.066Z,102601.70
2019-02-14T05:10:31.462Z,102615.67
2019-02-14T05:13:04.924Z,102615.67
2019-02-14T05:15:38.381Z,102608.13
2019-02-14T05:18:11.809Z,102615.64
2019-02-14T05:20:45.171Z,102606.84
2019-02-14T05:23:18.607Z,102603.87
2019-02-14T05:25:51.999Z,102588.86
2019-02-14T05:28:25.396Z,102623.86
2019-02-14T05:30:58.820Z,102652.19
2019-02-14T05:33:32.178Z,102651.14
2019-02-14T05:36:05.566Z,102652.05
2019-02-14T05:38:38.931Z,102658.02
2019-02-14T05:41:12.329Z,102658.02
2019-02-14T05:43:45.764Z,102654.95
2019-02-14T05:46:19.106Z,102654.95
2019-02-14T05:48:52.543Z,102644.04
2019-02-14T05:51:25.874Z,102644.04
2019-02-14T05:53:59.240Z,102637.00
2019-02-14T05:56:32.705Z,102626.63
2019-02-14T05:59:06.097Z,102623.02
2019-02-14T06:01:39.614Z,102618.70
2019-02-14T06:04:13.050Z,102629.89
2019-02-14T06:06:46.388Z,102626.59
2019-02-14T06:09:19.841Z,102634.75
2019-02-14T06:11:53.289Z,102630.09
2019-02-14T06:14:26.708Z,102629.36
2019-02-14T06:17:00.047Z,102627.08
2019-02-14T06:19:33.422Z,102642.91
2019-02-14T06:22:06.829Z,102643.66
2019-02-14T06:24:40.233Z,102653.50
2019-02-14T06:27:14.034Z,102653.98
2019-02-14T06:29:47.386Z,102645.12
2019-02-14T06:32:20.891Z,102642.55
2019-02-14T06:34:54.282Z,102653.37
2019-02-14T06:37:27.876Z,102652.00
2019-02-14T06:40:01.220Z,102651.08
2019-02-14T06:42:34.714Z,102651.46
2019-02-14T06:45:13.415Z,102661.86
2019-02-14T06:47:46.934Z,102666.04
2019-02-14T06:50:20.353Z,102679.14
2019-02-14T06:52:53.780Z,102683.87
2019-02-14T06:55:28.839Z,102682.23
2019-02-14T06:58:02.213Z,102680.10
2019-02-14T07:00:35.677Z,102683.97
2019-02-14T07:03:09.055Z,102674.62
2019-02-14T07:05:42.393Z,102675.84
2019-02-14T07:08:15.820Z,102673.11
2019-02-14T07:10:49.184Z,102677.87
2019-02-14T07:13:22.596Z,102678.80
2019-02-14T07:15:56.051Z,102669.92
2019-02-14T07:18:29.479Z,102671.42
2019-02-14T07:21:04.483Z,102669.61
2019-02-14T07:23:37.911Z,102677.25
2019-02-14T07:26:11.330Z,102680.41
2019-02-14T07:28:44.826Z,102685.08
2019-02-14T07:31:18.176Z,102689.50
2019-02-14T07:33:51.646Z,102702.01
2019-02-14T07:36:25.085Z,102702.76
2019-02-14T07:38:58.493Z,102701.73
2019-02-14T07:41:31.840Z,102704.59
2019-02-14T07:44:05.280Z,102710.59
2019-02-14T07:46:38.645Z,102705.81
2019-02-14T07:49:12.105Z,102705.75
2019-02-14T07:51:45.592Z,102709.53
2019-02-14T07:54:19.039Z,102709.53
2019-02-14T07:56:52.602Z,102709.33
2019-02-14T07:59:25.999Z,102712.80
2019-02-14T08:01:59.473Z,102709.14
2019-02-14T08:04:32.908Z,102717.13
2019-02-14T08:07:06.227Z,102707.70
2019-02-14T08:09:39.594Z,102694.95
2019-02-14T08:12:12.997Z,102701.08
2019-02-14T08:14:46.439Z,102701.05
2019-02-14T08:17:19.845Z,102700.98
2019-02-14T08:19:53.292Z,102702.75
2019-02-14T08:22:26.678Z,102706.08
2019-02-14T08:25:01.573Z,102706.47
2019-02-14T08:27:34.871Z,102712.71
2019-02-14T08:30:15.197Z,102706.81
2019-02-14T08:32:48.615Z,102706.05
2019-02-14T08:35:22.066Z,102703.43
2019-02-14T08:37:55.397Z,102712.52
2019-02-14T08:40:33.385Z,102712.33
2019-02-14T08:43:06.894Z,102714.03
2019-02-14T08:45:40.317Z,102714.78
2019-02-14T08:48:13.809Z,102713.50
2019-02-14T08:50:47.203Z,102715.34
2019-02-14T08:53:22.687Z,102699.56
2019-02-14T08:55:55.694Z,102702.27
2019-02-14T08:58:29.115Z,102699.97
2019-02-14T09:01:02.544Z,102698.27
2019-02-14T09:03:35.880Z,102689.95
2019-02-14T09:06:09.313Z,102677.20
2019-02-14T09:08:42.651Z,102674.33
2019-02-14T09:11:16.001Z,102672.66
2019-02-14T09:13:49.365Z,102668.27
2019-02-14T09:16:22.838Z,102667.69
2019-02-14T09:18:56.272Z,102664.28
2019-02-14T09:21:29.706Z,102670.41
2019-02-14T09:24:03.183Z,102681.11
2019-02-14T09:26:36.627Z,102676.75
2019-02-14T09:29:12.710Z,102680.55
2019-02-14T09:31:45.197Z,102679.17
2019-02-14T09:34:18.785Z,102676.61
2019-02-14T09:36:52.191Z,102674.19
2019-02-14T09:39:25.727Z,102665.70
2019-02-14T09:41:59.162Z,102673.49
2019-02-14T09:44:32.531Z,102674.18
2019-02-14T09:47:05.957Z,102675.22
2019-02-14T09:49:39.394Z,102685.93
2019-02-14T09:52:12.740Z,102697.06
2019-02-14T09:54:46.700Z,102691.06
2019-02-14T09:57:20.064Z,102693.63
2019-02-14T09:59:53.497Z,102692.30
2019-02-14T10:02:26.821Z,102692.13
2019-02-14T10:05:01.662Z,102704.87
2019-02-14T10:07:34.986Z,102698.30
2019-02-14T10:10:11.681Z,102705.05
2019-02-14T10:12:45.103Z,102711.84
2019-02-14T10:15:18.545Z,102712.61
2019-02-14T10:17:51.954Z,102709.02
2019-02-14T10:20:25.313Z,102698.78
2019-02-14T10:22:58.640Z,102692.86
2019-02-14T10:25:32.142Z,102688.94
2019-02-14T10:28:05.545Z,102690.06
2019-02-14T10:30:40.244Z,102690.91
2019-02-14T10:33:13.711Z,102686.74
2019-02-14T10:35:47.105Z,102678.14
2019-02-14T10:38:22.607Z,102683.81
2019-02-14T10:40:55.581Z,102682.14
2019-02-14T10:43:28.950Z,102676.64
2019-02-14T10:46:02.490Z,102683.07
2019-02-14T10:48:35.946Z,102683.30
2019-02-14T10:51:09.350Z,102684.67
2019-02-14T10:53:42.802Z,102687.64
2019-02-14T10:56:16.197Z,102674.79
2019-02-14T10:58:49.596Z,102668.03
2019-02-14T11:01:23.028Z,102666.36
2019-02-14T11:03:56.353Z,102658.70
2019-02-14T11:06:29.777Z,102656.56
2019-02-14T11:09:04.881Z,102652.73
2019-02-14T11:11:38.359Z,102659.52
2019-02-14T11:14:11.780Z,102661.72
2019-02-14T11:16:45.209Z,102657.00
2019-02-14T11:19:18.542Z,102652.38
2019-02-14T11:21:52.167Z,102645.96
2019-02-14T11:24:25.640Z,102646.81
2019-02-14T11:26:59.116Z,102653.67
2019-02-14T11:29:32.464Z,102647.65
2019-02-14T11:32:05.912Z,102642.98
2019-02-14T11:34:39.287Z,102641.70
2019-02-14T11:37:12.651Z,102628.00
2019-02-14T11:39:46.122Z,102631.86
2019-02-14T11:42:19.498Z,102621.61
2019-02-14T11:44:52.941Z,102616.53
2019-02-14T11:47:26.469Z,102624.20
2019-02-14T11:49:59.840Z,102614.44
2019-02-14T11:52:33.204Z,102621.30
2019-02-14T11:55:08.208Z,102616.81
2019-02-14T11:57:41.666Z,102613.89
2019-02-14T12:00:25.871Z,102618.66
2019-02-14T12:02:59.201Z,102618.22
2019-02-14T12:05:32.628Z,102618.28
2019-02-14T12:08:06.029Z,102614.82
2019-02-14T12:10:39.449Z,102612.31
2019-02-14T12:13:12.783Z,102612.29
2019-02-14T12:15:46.243Z,102619.56
2019-02-14T12:18:19.678Z,102615.25
2019-02-14T12:20:53.118Z,102617.77
2019-02-14T12:23:26.444Z,102613.03
2019-02-14T12:25:59.896Z,102610.42
2019-02-14T12:28:33.308Z,102607.80
2019-02-14T12:31:06.876Z,102605.47
2019-02-14T12:33:40.285Z,102614.03
2019-02-14T12:36:13.748Z,102614.97
2019-02-14T12:38:47.178Z,102612.80
2019-02-14T12:41:20.633Z,102605.45
2019-02-14T12:43:53.972Z,102603.05
2019-02-14T12:46:27.445Z,102604.82
2019-02-14T12:49:00.916Z,102596.89
2019-02-14T12:51:34.364Z,102596.95
2019-02-14T12:54:07.690Z,102597.88
2019-02-14T12:56:41.140Z,102589.41
2019-02-14T12:59:14.527Z,102586.05
2019-02-14T13:01:47.878Z,102578.78
2019-02-14T13:04:21.211Z,102582.20
2019-02-14T13:06:54.640Z,102576.59
2019-02-14T13:09:28.089Z,102577.86
2019-02-14T13:12:01.508Z,102579.52
2019-02-14T13:14:34.839Z,102576.13
2019-02-14T13:17:08.221Z,102576.55
2019-02-14T13:19:41.623Z,102568.89
2019-02-14T13:22:14.982Z,102568.02
2019-02-14T13:24:48.311Z,102563.73
2019-02-14T13:27:21.713Z,102563.33
2019-02-14T13:29:55.172Z,102561.15
2019-02-14T13:32:28.574Z,102559.03
2019-02-14T13:35:01.983Z,102559.89
2019-02-14T13:37:35.392Z,102554.76
2019-02-14T13:40:09.273Z,102551.72
2019-02-14T13:42:42.734Z,102550.84
2019-02-14T13:45:21.882Z,102543.59
2019-02-14T13:47:55.230Z,102547.44
2019-02-14T13:50:28.616Z,102549.20
2019-02-14T13:53:02.013Z,102551.34
2019-02-14T13:55:35.430Z,102544.03
2019-02-14T13:58:08.866Z,102541.45
2019-02-14T14:00:42.181Z,102541.89
2019-02-14T14:03:15.620Z,102538.07
2019-02-14T14:05:49.011Z,102541.91
2019-02-14T14:08:22.376Z,102539.33
2019-02-14T14:10:55.794Z,102540.58
2019-02-14T14:13:29.208Z,102541.87
2019-02-14T14:16:02.607Z,102537.14
2019-02-14T14:18:35.953Z,102536.73
2019-02-14T14:21:09.417Z,102532.00
2019-02-14T14:23:42.878Z,102537.20
2019-02-14T14:26:16.230Z,102541.50
2019-02-14T14:28:49.552Z,102536.86
2019-02-14T14:31:23.025Z,102535.56
2019-02-14T14:33:56.408Z,102538.98
2019-02-14T14:36:29.762Z,102536.83
2019-02-14T14:39:03.166Z,102537.69
2019-02-14T14:41:36.619Z,102541.98
2019-02-14T14:44:14.713Z,102539.01
2019-02-14T14:46:48.226Z,102540.27
2019-02-14T14:49:21.673Z,102540.72
2019-02-14T14:51:55.085Z,102537.29
2019-02-14T14:54:28.610Z,102539.42
2019-02-14T14:57:02.396Z,102542.02
2019-02-14T14:59:35.712Z,102544.19
2019-02-14T15:02:09.134Z,102537.78
2019-02-14T15:04:42.457Z,102541.20
2019-02-14T15:07:15.890Z,102542.09
2019-02-14T15:09:57.297Z,102543.78
2019-02-14T15:12:24.431Z,102537.38
2019-02-14T15:14:57.807Z,102534.78
2019-02-14T15:17:33.177Z,102538.64
2019-02-14T15:20:10.723Z,102539.52
2019-02-14T15:22:44.151Z,102535.25
2019-02-14T15:25:17.502Z,102537.39
2019-02-14T15:27:50.960Z,102537.41
2019-02-14T15:30:24.282Z,102532.27
2019-02-14T15:32:57.635Z,102530.14
2019-02-14T15:35:30.956Z,102530.59
2019-02-14T15:38:04.330Z,102527.62
2019-02-14T15:40:37.656Z,102522.49
2019-02-14T15:43:11.094Z,102525.03
2019-02-14T15:45:44.492Z,102529.76
2019-02-14T15:48:17.840Z,102529.75
2019-02-14T15:50:53.688Z,102534.46
2019-02-14T15:53:26.391Z,102525.44
2019-02-14T15:55:59.798Z,102533.58
2019-02-14T15:58:33.269Z,102530.13
2019-02-14T16:01:07.476Z,102532.26
2019-02-14T16:03:42.736Z,102537.83
2019-02-14T16:06:16.397Z,102544.22
2019-02-14T16:08:50.329Z,102537.80
2019-02-14T16:11:23.937Z,102540.77
2019-02-14T16:13:57.326Z,102547.59
2019-02-14T16:16:30.772Z,102540.27
2019-02-14T16:19:04.501Z,102536.82
2019-02-14T16:21:38.210Z,102540.19
2019-02-14T16:24:11.628Z,102545.73
2019-02-14T16:26:45.860Z,102549.09
2019-02-14T16:29:19.270Z,102547.32
2019-02-14T16:31:52.600Z,102543.05
2019-02-14T16:34:26.031Z,102537.03
2019-02-14T16:36:59.532Z,102542.08
2019-02-14T16:39:32.925Z,102535.56
2019-02-14T16:42:06.255Z,102536.80
2019-02-14T16:44:39.618Z,102532.88
2019-02-14T16:47:13.009Z,102531.97
2019-02-14T16:49:46.455Z,102535.70
2019-02-14T16:52:19.881Z,102534.79
2019-02-14T16:54:53.378Z,102535.52
2019-02-14T16:57:26.879Z,102536.33
2019-02-14T17:00:00.518Z,102537.94
2019-02-14T17:02:34.083Z,102535.28
2019-02-14T17:05:07.794Z,102533.92
2019-02-14T17:07:41.286Z,102535.05
2019-02-14T17:10:15.032Z,102534.93
2019-02-14T17:12:48.477Z,102534.00
2019-02-14T17:15:21.902Z,102544.98
2019-02-14T17:17:55.400Z,102543.16
2019-02-14T17:20:28.766Z,102547.28
2019-02-14T17:23:02.278Z,102558.21
2019-02-14T17:25:35.598Z,102555.65
2019-02-14T17:28:08.958Z,102565.77
2019-02-14T17:30:42.354Z,102566.56
2019-02-14T17:33:15.813Z,102563.06
2019-02-14T17:35:49.141Z,102560.41
2019-02-14T17:38:22.493Z,102562.81
2019-02-14T17:40:55.827Z,102564.83
2019-02-14T17:43:29.230Z,102561.75
2019-02-14T17:46:02.632Z,102567.59
2019-02-14T17:48:36.085Z,102568.33
2019-02-14T17:51:09.517Z,102564.75
2019-02-14T17:53:42.898Z,102563.30
2019-02-14T17:56:16.354Z,102566.63
2019-02-14T17:58:49.763Z,102563.48
2019-02-14T18:01:26.096Z,102563.33
2019-02-14T18:03:59.449Z,102555.93
2019-02-14T18:06:32.840Z,102566.84
2019-02-14T18:09:06.805Z,102564.11
2019-02-14T18:11:40.199Z,102566.09
2019-02-14T18:14:13.624Z,102560.02
2019-02-14T18:16:46.957Z,102568.78
2019-02-14T18:19:20.282Z,102568.65
2019-02-14T18:21:53.816Z,102568.06
2019-02-14T18:24:27.301Z,102565.80
2019-02-14T18:27:00.799Z,102564.27
2019-02-14T18:29:37.196Z,102563.32
2019-02-14T18:32:10.545Z,102559.31
2019-02-14T18:34:43.887Z,102560.05
2019-02-14T18:37:17.279Z,102564.16
2019-02-14T18:39:50.727Z,102557.30
2019-02-14T18:42:24.208Z,102556.71
2019-02-14T18:44:57.676Z,102555.25
2019-02-14T18:47:39.294Z,102557.22
2019-02-14T18:50:08.964Z,102554.95
2019-02-14T18:52:42.433Z,102556.89
2019-02-14T18:55:15.861Z,102555.47
2019-02-14T18:57:49.318Z,102559.20
2019-02-14T19:00:22.715Z,102562.89
2019-02-14T19:02:56.241Z,102557.20
2019-02-14T19:05:29.733Z,102557.48
2019-02-14T19:08:03.177Z,102554.78
2019-02-14T19:10:36.500Z,102554.65
2019-02-14T19:13:09.922Z,102563.02
2019-02-14T19:15:43.372Z,102571.25
2019-02-14T19:18:16.791Z,102563.05
2019-02-14T19:20:50.118Z,102563.05
2019-02-14T19:23:24.522Z,102564.64
2019-02-14T19:25:58.020Z,102566.98
2019-02-14T19:28:31.402Z,102566.98
2019-02-14T19:31:04.824Z,102551.19
2019-02-14T19:33:38.193Z,102562.29
2019-02-14T19:36:11.589Z,102560.97
2019-02-14T19:38:45.013Z,102561.27
2019-02-14T19:41:25.157Z,102565.02
2019-02-14T19:43:53.629Z,102562.36
2019-02-14T19:46:26.958Z,102562.33
2019-02-14T19:49:00.409Z,102559.61
2019-02-14T19:51:33.880Z,102564.63
2019-02-14T19:54:07.251Z,102566.22
2019-02-14T19:56:40.750Z,102565.75
2019-02-14T19:59:14.214Z,102561.85
2019-02-14T20:01:49.235Z,102566.88
2019-02-14T20:04:22.695Z,102568.05
2019-02-14T20:06:56.037Z,102570.97
2019-02-14T20:09:29.454Z,102571.32
2019-02-14T20:12:02.971Z,102570.84
2019-02-14T20:14:36.388Z,102578.30
2019-02-14T20:17:09.762Z,102574.34
2019-02-14T20:19:43.212Z,102571.23
2019-02-14T20:22:16.555Z,102574.50
2019-02-14T20:24:50.058Z,102573.97
2019-02-14T20:27:23.360Z,102578.05
2019-02-14T20:29:56.783Z,102571.87
2019-02-14T20:32:30.195Z,102569.61
2019-02-14T20:35:04.227Z,102572.91
2019-02-14T20:37:37.643Z,102568.19
2019-02-14T20:40:11.268Z,102566.44
2019-02-14T20:42:44.616Z,102559.63
2019-02-14T20:45:18.022Z,102564.56
2019-02-14T20:47:51.434Z,102574.88
2019-02-14T20:50:24.822Z,102571.36
2019-02-14T20:52:58.209Z,102567.86
2019-02-14T20:55:31.638Z,102565.64
2019-02-14T20:58:05.180Z,102558.83
2019-02-14T21:00:38.691Z,102562.18
2019-02-14T21:03:12.088Z,102568.89
2019-02-14T21:05:45.585Z,102574.75
2019-02-14T21:08:18.940Z,102576.33
2019-02-14T21:10:52.431Z,102573.25
2019-02-14T21:13:25.920Z,102573.63
2019-02-14T21:15:59.574Z,102573.52
2019-02-14T21:18:33.151Z,102569.23
2019-02-14T21:21:06.814Z,102569.20
2019-02-14T21:23:40.130Z,102570.02
2019-02-14T21:26:14.133Z,102570.02
2019-02-14T21:28:48.940Z,102573.34
2019-02-14T21:31:22.461Z,102569.92
2019-02-14T21:33:56.336Z,102581.66
2019-02-14T21:36:30.097Z,102581.97
2019-02-14T21:39:05.585Z,102578.02
2019-02-14T21:41:39.035Z,102577.81
2019-02-14T21:44:12.487Z,102573.87
2019-02-14T21:46:45.849Z,102576.81
2019-02-14T21:49:19.253Z,102579.27
2019-02-14T21:51:52.643Z,102574.92
2019-02-14T21:54:25.997Z,102579.47
2019-02-14T21:56:59.328Z,102576.03
2019-02-14T21:59:32.689Z,102578.91
2019-02-14T22:02:06.770Z,102580.06
2019-02-14T22:04:40.517Z,102578.24
2019-02-14T22:07:13.886Z,102576.08
2019-02-14T22:09:47.349Z,102573.48
2019-02-14T22:12:38.955Z,102574.63
2019-02-14T22:14:55.959Z,102569.53
2019-02-14T22:17:29.398Z,102574.08
2019-02-14T22:20:03.171Z,102576.49
2019-02-14T22:22:36.655Z,102576.45
2019-02-14T22:25:11.089Z,102581.45
2019-02-14T22:27:44.552Z,102573.70
2019-02-14T22:30:18.699Z,102576.82
2019-02-14T22:32:52.097Z,102576.66
2019-02-14T22:35:25.513Z,102577.41
2019-02-14T22:37:58.974Z,102573.95
2019-02-14T22:40:32.864Z,102573.86
2019-02-14T22:43:06.184Z,102573.75
2019-02-14T22:45:39.744Z,102580.86
2019-02-14T22:48:13.139Z,102577.02
2019-02-14T22:50:46.582Z,102587.55
2019-02-14T22:53:20.091Z,102584.50
2019-02-14T22:55:53.535Z,102583.19
2019-02-14T22:58:26.857Z,102581.92
2019-02-14T23:01:00.869Z,102578.02
2019-02-14T23:03:34.509Z,102580.83
2019-02-14T23:06:07.925Z,102572.67
2019-02-14T23:08:41.255Z,102571.74
2019-02-14T23:11:14.783Z,102575.50
2019-02-14T23:13:48.104Z,102572.08
2019-02-14T23:16:21.560Z,102571.58
2019-02-14T23:18:54.915Z,102570.61
2019-02-14T23:21:28.416Z,102570.90
2019-02-14T23:24:01.876Z,102572.48
2019-02-14T23:26:35.222Z,102575.35
2019-02-14T23:29:09.073Z,102575.19
2019-02-14T23:31:42.554Z,102576.33
2019-02-14T23:34:15.969Z,102576.62
2019-02-14T23:36:49.327Z,102571.92
2019-02-14T23:39:22.647Z,102572.37
2019-02-14T23:41:56.093Z,102570.66
2019-02-14T23:44:29.449Z,102572.25
2019-02-14T23:47:02.869Z,102575.59
2019-02-14T23:49:36.207Z,102571.34
2019-02-14T23:52:09.724Z,102582.73
2019-02-14T23:54:43.124Z,102586.04
2019-02-14T23:57:16.474Z,102581.27
2019-02-14T23:59:49.850Z,102588.28
